Terminal Aerodrome Forecast
Issued by NWS Melbourne, FL

Home | Current Version | Previous Version | Text Only | Print | Product List | Glossary On
Versions: 1 2 3 4 5 6 7 8 9 10 11 12 13 14 15 16 17 18 19 20 21 22 23 24 25 26 27 28 29 30 31 32
000
FTUS42 KMLB 281412 AAB
TAFMCO
TAF AMD
KMCO 281412Z 2814/2912 02007KT P6SM FEW010 BKN020
     FM281600 03008KT P6SM SCT025 SCT250
     FM281900 08010KT P6SM VCTS SCT035CB BKN080
      TEMPO 2819/2822 3SM TSRA BKN025CB
     FM290000 06007KT P6SM VCSH SCT025 BKN070
     FM290300 06003KT P6SM FEW025 SCT120 BKN250=

USA.gov is the U.S. government's official web portal to all federal, state and local government web resources and services.